createdAt,value
2023-03-20T00:01:56.241Z,21.50
2023-03-20T00:04:23.051Z,21.83
2023-03-20T00:06:49.479Z,21.23
2023-03-20T00:09:16.051Z,21.50
2023-03-20T00:11:49.791Z,23.87
2023-03-20T00:14:19.036Z,23.30
2023-03-20T00:16:47.554Z,21.53
2023-03-20T00:19:23.091Z,25.60
2023-03-20T00:21:51.018Z,22.20
2023-03-20T00:24:17.750Z,25.73
2023-03-20T00:26:46.465Z,21.50
2023-03-20T00:29:27.654Z,20.20
2023-03-20T00:31:55.472Z,22.40
2023-03-20T00:34:25.696Z,19.60
2023-03-20T00:36:53.128Z,22.13
2023-03-20T00:39:20.316Z,21.07
2023-03-20T00:41:57.472Z,20.97
2023-03-20T00:44:32.521Z,20.60
2023-03-20T00:47:05.631Z,22.93
2023-03-20T00:49:34.385Z,21.80
2023-03-20T00:52:02.394Z,21.00
2023-03-20T00:54:29.263Z,23.27
2023-03-20T00:57:07.446Z,19.90
2023-03-20T00:59:37.896Z,20.33
2023-03-20T01:02:04.510Z,16.37
2023-03-20T01:04:42.189Z,18.93
2023-03-20T01:07:13.978Z,19.20
2023-03-20T01:09:40.579Z,19.97
2023-03-20T01:12:07.882Z,19.47
2023-03-20T01:14:34.900Z,19.37
2023-03-20T01:17:01.441Z,20.33
2023-03-20T01:19:27.896Z,19.50
2023-03-20T01:21:54.412Z,18.60
2023-03-20T01:24:21.239Z,18.80
2023-03-20T01:26:47.844Z,18.33
2023-03-20T01:29:21.801Z,21.87
2023-03-20T01:31:49.922Z,19.13
2023-03-20T01:34:16.893Z,19.93
2023-03-20T01:36:51.422Z,20.67
2023-03-20T01:39:19.201Z,18.67
2023-03-20T01:41:47.238Z,18.90
2023-03-20T01:44:30.535Z,21.40
2023-03-20T01:46:58.220Z,19.90
2023-03-20T01:49:24.651Z,24.70
2023-03-20T01:51:52.425Z,22.07
2023-03-20T01:54:33.672Z,20.30
2023-03-20T01:57:03.359Z,18.90
2023-03-20T01:59:35.668Z,20.10
2023-03-20T02:02:02.229Z,20.47
2023-03-20T02:04:34.465Z,22.40
2023-03-20T02:07:01.212Z,22.03
2023-03-20T02:09:27.701Z,18.67
2023-03-20T02:11:56.162Z,24.20
2023-03-20T02:14:23.508Z,22.40
2023-03-20T02:16:50.239Z,19.47
2023-03-20T02:19:29.542Z,20.37
2023-03-20T02:22:05.085Z,24.80
2023-03-20T02:24:51.734Z,19.80
2023-03-20T02:27:43.021Z,22.47
2023-03-20T02:30:24.327Z,18.80
2023-03-20T02:33:33.225Z,21.40
2023-03-20T02:36:37.578Z,19.33
2023-03-20T02:39:28.034Z,23.30
2023-03-20T02:42:13.635Z,21.80
2023-03-20T02:45:23.889Z,20.00
2023-03-20T02:48:10.163Z,22.80
2023-03-20T02:50:47.529Z,21.43
2023-03-20T02:53:17.097Z,24.80
2023-03-20T02:55:44.062Z,21.23
2023-03-20T02:58:25.942Z,26.40
2023-03-20T03:01:01.596Z,24.63
2023-03-20T03:03:34.356Z,24.93
2023-03-20T03:06:19.068Z,26.40
2023-03-20T03:08:55.804Z,26.80
2023-03-20T03:11:22.451Z,23.57
2023-03-20T03:13:52.977Z,23.33
2023-03-20T03:16:32.652Z,31.00
2023-03-20T03:19:07.996Z,21.87
2023-03-20T03:21:37.473Z,20.63
2023-03-20T03:24:04.384Z,21.87
2023-03-20T03:26:37.338Z,23.67
2023-03-20T03:29:11.670Z,21.13
2023-03-20T03:31:38.454Z,22.97
2023-03-20T03:34:05.262Z,21.97
2023-03-20T03:36:41.327Z,19.90
2023-03-20T03:39:16.573Z,22.00
2023-03-20T03:41:52.112Z,23.83
2023-03-20T03:44:45.200Z,23.40
2023-03-20T03:47:19.946Z,22.90
2023-03-20T03:49:52.309Z,22.87
2023-03-20T03:52:23.418Z,25.23
2023-03-20T03:54:56.208Z,23.17
2023-03-20T03:57:31.292Z,25.93
2023-03-20T03:59:59.958Z,25.60
2023-03-20T04:02:27.148Z,25.50
2023-03-20T04:04:55.151Z,25.87
2023-03-20T04:07:21.622Z,25.00
2023-03-20T04:09:48.142Z,24.67
2023-03-20T04:12:40.679Z,29.50
2023-03-20T04:15:07.922Z,30.63
2023-03-20T04:17:34.719Z,24.30
2023-03-20T04:20:01.446Z,28.77
2023-03-20T04:22:27.973Z,26.80
2023-03-20T04:24:54.448Z,32.33
2023-03-20T04:27:21.571Z,24.33
2023-03-20T04:29:48.080Z,28.20
2023-03-20T04:32:14.540Z,30.00
2023-03-20T04:34:41.257Z,28.33
2023-03-20T04:37:08.513Z,31.80
2023-03-20T04:39:36.780Z,28.57
2023-03-20T04:42:05.520Z,30.63
2023-03-20T04:44:32.143Z,28.60
2023-03-20T04:46:58.679Z,30.80
2023-03-20T04:49:25.094Z,29.47
2023-03-20T04:51:51.576Z,30.77
2023-03-20T04:54:18.017Z,26.70
2023-03-20T04:56:44.593Z,32.03
2023-03-20T04:59:11.007Z,30.40
2023-03-20T05:01:37.625Z,27.83
2023-03-20T05:04:04.224Z,27.73
2023-03-20T05:06:34.058Z,26.77
2023-03-20T05:09:00.982Z,27.50
2023-03-20T05:11:27.768Z,31.00
2023-03-20T05:13:54.715Z,25.27
2023-03-20T05:16:21.222Z,32.77
2023-03-20T05:18:48.127Z,28.37
2023-03-20T05:21:14.868Z,28.07
2023-03-20T05:23:41.310Z,32.03
2023-03-20T05:26:07.860Z,26.23
2023-03-20T05:28:34.337Z,27.10
2023-03-20T05:31:00.897Z,29.40
2023-03-20T05:33:27.437Z,27.20
2023-03-20T05:35:53.976Z,27.50
2023-03-20T05:38:22.771Z,29.50
2023-03-20T05:40:59.765Z,25.43
2023-03-20T05:43:28.108Z,26.87
2023-03-20T05:45:56.288Z,27.87
2023-03-20T05:48:23.950Z,23.17
2023-03-20T05:50:50.943Z,24.07
2023-03-20T05:53:17.461Z,27.90
2023-03-20T05:55:44.741Z,36.27
2023-03-20T05:58:12.130Z,27.80
2023-03-20T06:00:39.550Z,29.60
2023-03-20T06:03:06.962Z,27.50
2023-03-20T06:05:34.646Z,28.70
2023-03-20T06:08:01.670Z,28.90
2023-03-20T06:10:30.064Z,29.13
2023-03-20T06:12:57.693Z,33.20
2023-03-20T06:15:24.411Z,32.90
2023-03-20T06:17:50.872Z,32.40
2023-03-20T06:20:17.808Z,33.47
2023-03-20T06:22:44.906Z,36.57
2023-03-20T06:25:11.426Z,31.47
2023-03-20T06:27:38.089Z,30.03
2023-03-20T06:30:04.978Z,31.83
2023-03-20T06:32:32.320Z,32.40
2023-03-20T06:34:58.819Z,32.83
2023-03-20T06:37:25.637Z,31.30
2023-03-20T06:39:52.119Z,29.50
2023-03-20T06:42:18.650Z,36.23
2023-03-20T06:44:45.099Z,31.83
2023-03-20T06:47:11.566Z,30.80
2023-03-20T06:49:38.008Z,27.33
2023-03-20T06:52:04.993Z,29.60
2023-03-20T06:54:31.593Z,30.63
2023-03-20T06:56:58.123Z,32.07
2023-03-20T06:59:24.578Z,29.60
2023-03-20T07:01:51.041Z,30.20
2023-03-20T07:04:17.518Z,33.57
2023-03-20T07:06:44.140Z,28.37
2023-03-20T07:09:10.673Z,23.40
2023-03-20T07:11:37.139Z,23.93
2023-03-20T07:14:03.607Z,24.07
2023-03-20T07:16:30.108Z,25.83
2023-03-20T07:18:56.619Z,26.40
2023-03-20T07:21:23.283Z,23.17
2023-03-20T07:23:49.800Z,29.33
2023-03-20T07:26:16.942Z,26.47
2023-03-20T07:28:43.501Z,24.83
2023-03-20T07:31:19.913Z,20.30
2023-03-20T07:33:46.717Z,31.27
2023-03-20T07:36:15.373Z,23.53
2023-03-20T07:38:41.813Z,24.27
2023-03-20T07:41:08.530Z,34.03
2023-03-20T07:43:34.999Z,24.87
2023-03-20T07:46:07.356Z,27.77
2023-03-20T07:48:34.580Z,24.80
2023-03-20T07:51:01.044Z,21.87
2023-03-20T07:53:27.929Z,23.83
2023-03-20T07:55:54.402Z,24.60
2023-03-20T07:58:20.931Z,30.40
2023-03-20T08:00:47.417Z,25.50
2023-03-20T08:03:14.075Z,21.97
2023-03-20T08:05:40.880Z,26.23
2023-03-20T08:08:07.483Z,24.00
2023-03-20T08:10:34.075Z,28.90
2023-03-20T08:13:00.609Z,24.30
2023-03-20T08:15:27.098Z,24.70
2023-03-20T08:17:53.583Z,24.73
2023-03-20T08:20:20.188Z,22.07
2023-03-20T08:22:47.092Z,28.43
2023-03-20T08:25:13.654Z,28.40
2023-03-20T08:27:40.141Z,26.00
2023-03-20T08:30:07.227Z,23.30
2023-03-20T08:32:33.806Z,26.33
2023-03-20T08:35:00.342Z,19.87
2023-03-20T08:37:28.577Z,24.37
2023-03-20T08:39:55.147Z,22.30
2023-03-20T08:42:21.767Z,21.27
2023-03-20T08:44:48.337Z,24.67
2023-03-20T08:47:14.810Z,22.90
2023-03-20T08:49:41.330Z,32.03
2023-03-20T08:52:07.858Z,26.30
2023-03-20T08:54:34.457Z,19.47
2023-03-20T08:57:00.953Z,18.20
2023-03-20T08:59:27.483Z,19.40
2023-03-20T09:01:54.024Z,20.37
2023-03-20T09:04:20.528Z,21.80
2023-03-20T09:06:47.736Z,17.33
2023-03-20T09:09:15.881Z,22.20
2023-03-20T09:11:42.511Z,19.03
2023-03-20T09:14:08.956Z,24.70
2023-03-20T09:16:35.542Z,21.57
2023-03-20T09:19:02.116Z,20.83
2023-03-20T09:21:28.553Z,18.57
2023-03-20T09:23:55.042Z,17.70
2023-03-20T09:26:21.585Z,22.10
2023-03-20T09:28:48.056Z,18.23
2023-03-20T09:31:14.596Z,18.50
2023-03-20T09:33:41.257Z,20.30
2023-03-20T09:36:11.370Z,24.13
2023-03-20T09:38:38.112Z,19.27
2023-03-20T09:41:05.408Z,18.80
2023-03-20T09:43:53.254Z,15.57
2023-03-20T09:46:49.420Z,16.87
2023-03-20T09:49:46.544Z,16.40
2023-03-20T09:52:28.532Z,21.47
2023-03-20T09:54:58.495Z,16.63
2023-03-20T09:57:43.273Z,17.80
2023-03-20T10:00:17.411Z,25.27
2023-03-20T10:02:59.414Z,12.90
2023-03-20T10:05:25.820Z,16.07
2023-03-20T10:08:00.873Z,18.40
2023-03-20T10:10:42.648Z,13.10
2023-03-20T10:13:39.277Z,20.17
2023-03-20T10:16:28.379Z,15.97
2023-03-20T10:19:07.190Z,12.37
2023-03-20T10:21:46.056Z,22.47
2023-03-20T10:24:36.005Z,17.87
2023-03-20T10:27:10.358Z,11.17
2023-03-20T10:29:54.421Z,13.80
2023-03-20T10:32:34.951Z,14.83
2023-03-20T10:35:25.049Z,12.20
2023-03-20T10:38:04.809Z,12.47
2023-03-20T10:40:38.476Z,18.77
2023-03-20T10:43:21.363Z,16.10
2023-03-20T10:45:57.571Z,14.43
2023-03-20T10:48:33.826Z,14.37
2023-03-20T10:51:03.237Z,14.10
2023-03-20T10:53:37.283Z,13.83
2023-03-20T10:56:09.171Z,13.93
2023-03-20T10:58:40.500Z,21.23
2023-03-20T11:01:07.834Z,15.30
2023-03-20T11:03:39.549Z,14.13
2023-03-20T11:06:34.506Z,11.30
2023-03-20T11:09:17.000Z,13.73
2023-03-20T11:11:46.981Z,14.30
2023-03-20T11:14:22.976Z,19.43
2023-03-20T11:16:51.996Z,13.73
2023-03-20T11:19:21.310Z,15.43
2023-03-20T11:21:56.999Z,18.23
2023-03-20T11:24:36.922Z,15.43
2023-03-20T11:27:09.511Z,16.50
2023-03-20T11:29:37.002Z,22.40
2023-03-20T11:32:35.832Z,15.00
2023-03-20T11:35:20.488Z,15.37
2023-03-20T11:37:52.022Z,15.67
2023-03-20T11:40:22.930Z,13.70
2023-03-20T11:43:02.872Z,17.93
2023-03-20T11:45:36.834Z,14.90
2023-03-20T11:48:05.014Z,18.03
2023-03-20T11:50:35.227Z,15.03
2023-03-20T11:53:04.557Z,15.33
2023-03-20T11:55:33.886Z,19.30
2023-03-20T11:58:04.093Z,18.33
2023-03-20T12:00:38.428Z,16.10
2023-03-20T12:03:33.648Z,14.80
2023-03-20T12:06:00.735Z,14.83
2023-03-20T12:08:31.847Z,15.17
2023-03-20T12:11:26.580Z,15.53
2023-03-20T12:13:56.853Z,12.67
2023-03-20T12:16:25.676Z,13.67
2023-03-20T12:18:57.484Z,14.73
2023-03-20T12:21:36.055Z,14.00
2023-03-20T12:24:06.686Z,14.77
2023-03-20T12:26:48.326Z,18.20
2023-03-20T12:29:31.675Z,12.90
2023-03-20T12:32:08.713Z,14.27
2023-03-20T12:34:41.529Z,17.00
2023-03-20T12:37:12.168Z,15.40
2023-03-20T12:39:44.889Z,17.00
2023-03-20T12:42:36.376Z,14.73
2023-03-20T12:45:13.831Z,13.70
2023-03-20T12:48:02.169Z,13.70
2023-03-20T12:50:28.666Z,13.03
2023-03-20T12:53:16.680Z,13.73
2023-03-20T12:56:07.555Z,15.37
2023-03-20T12:58:44.184Z,12.63
2023-03-20T13:01:19.370Z,13.50
2023-03-20T13:03:52.658Z,12.47
2023-03-20T13:06:44.548Z,12.00
2023-03-20T13:09:25.764Z,16.23
2023-03-20T13:12:00.928Z,14.30
2023-03-20T13:14:27.314Z,12.70
2023-03-20T13:16:56.844Z,12.90
2023-03-20T13:19:23.319Z,11.57
2023-03-20T13:22:02.800Z,15.33
2023-03-20T13:24:49.739Z,16.70
2023-03-20T13:27:23.731Z,11.77
2023-03-20T13:29:53.717Z,11.60
2023-03-20T13:32:46.106Z,14.93
2023-03-20T13:35:44.708Z,12.67
2023-03-20T13:38:18.856Z,16.27
2023-03-20T13:40:49.328Z,18.40
2023-03-20T13:43:31.746Z,15.70
2023-03-20T13:46:14.691Z,12.43
2023-03-20T13:48:42.952Z,16.50
2023-03-20T13:51:34.660Z,13.00
2023-03-20T13:54:46.006Z,13.77
2023-03-20T13:57:33.640Z,13.23
2023-03-20T14:00:12.403Z,13.27
2023-03-20T14:03:07.511Z,14.13
2023-03-20T14:05:39.581Z,11.63
2023-03-20T14:08:38.423Z,16.20
2023-03-20T14:11:13.939Z,18.67
2023-03-20T14:13:47.599Z,15.60
2023-03-20T14:16:16.881Z,16.00
2023-03-20T14:18:45.850Z,18.20
2023-03-20T14:21:15.276Z,14.07
2023-03-20T14:23:50.523Z,13.20
2023-03-20T14:26:28.802Z,13.43
2023-03-20T14:28:58.123Z,12.90
2023-03-20T14:31:32.772Z,15.27
2023-03-20T14:34:24.619Z,17.83
2023-03-20T14:37:05.110Z,17.00
2023-03-20T14:40:00.635Z,13.30
2023-03-20T14:42:50.646Z,17.37
2023-03-20T14:45:17.126Z,16.27
2023-03-20T14:47:59.419Z,17.43
2023-03-20T14:50:47.930Z,17.77
2023-03-20T14:53:27.544Z,19.43
2023-03-20T14:55:57.042Z,21.13
2023-03-20T14:58:43.268Z,15.57
2023-03-20T15:01:24.698Z,17.70
2023-03-20T15:04:02.206Z,18.27
2023-03-20T15:06:29.571Z,17.83
2023-03-20T15:08:59.928Z,16.03
2023-03-20T15:11:26.987Z,20.90
2023-03-20T15:13:54.442Z,21.43
2023-03-20T15:16:30.121Z,19.50
2023-03-20T15:18:56.665Z,17.53
2023-03-20T15:21:38.935Z,24.40
2023-03-20T15:24:05.835Z,11.80
2023-03-20T15:26:34.912Z,15.20
2023-03-20T15:29:07.879Z,21.00
2023-03-20T15:31:38.385Z,19.83
2023-03-20T15:34:25.394Z,18.10
2023-03-20T15:36:55.987Z,21.30
2023-03-20T15:39:28.705Z,16.07
2023-03-20T15:41:56.867Z,22.37
2023-03-20T15:44:28.346Z,15.63
2023-03-20T15:47:04.077Z,13.67
2023-03-20T15:49:33.556Z,17.30
2023-03-20T15:52:05.584Z,15.53
2023-03-20T15:54:33.993Z,16.23
2023-03-20T15:57:02.454Z,19.07
2023-03-20T15:59:32.641Z,15.37
2023-03-20T16:02:00.863Z,15.47
2023-03-20T16:04:28.131Z,15.83
2023-03-20T16:06:58.281Z,17.10
2023-03-20T16:09:25.541Z,14.53
2023-03-20T16:11:58.621Z,20.10
2023-03-20T16:14:27.514Z,17.77
2023-03-20T16:16:56.086Z,12.67
2023-03-20T16:19:24.646Z,21.90
2023-03-20T16:21:54.626Z,14.20
2023-03-20T16:24:36.126Z,13.10
2023-03-20T16:27:07.956Z,19.97
2023-03-20T16:29:34.828Z,20.63
2023-03-20T16:32:20.976Z,14.73
2023-03-20T16:34:51.370Z,16.90
2023-03-20T16:37:48.895Z,15.30
2023-03-20T16:40:28.572Z,23.43
2023-03-20T16:42:57.221Z,24.13
2023-03-20T16:45:33.318Z,17.33
2023-03-20T16:48:23.283Z,15.80
2023-03-20T16:50:56.932Z,14.90
2023-03-20T16:53:24.900Z,17.30
2023-03-20T16:55:54.769Z,17.17
2023-03-20T16:58:24.017Z,20.43
2023-03-20T17:01:06.133Z,13.67
2023-03-20T17:03:48.124Z,18.33
2023-03-20T17:06:23.746Z,17.00
2023-03-20T17:08:53.269Z,14.40
2023-03-20T17:11:29.668Z,20.03
2023-03-20T17:13:56.164Z,15.63
2023-03-20T17:16:24.320Z,16.40
2023-03-20T17:19:01.195Z,19.63
2023-03-20T17:21:28.204Z,19.93
2023-03-20T17:23:54.687Z,18.00
2023-03-20T17:26:21.472Z,14.20
2023-03-20T17:28:47.932Z,13.83
2023-03-20T17:31:16.395Z,17.03
2023-03-20T17:33:45.126Z,15.13
2023-03-20T17:36:24.792Z,18.33
2023-03-20T17:38:51.291Z,14.87
2023-03-20T17:41:19.501Z,20.57
2023-03-20T17:43:46.382Z,18.83
2023-03-20T17:46:26.542Z,24.37
2023-03-20T17:48:58.617Z,16.73
2023-03-20T17:51:25.477Z,20.60
2023-03-20T17:53:57.676Z,18.33
2023-03-20T17:56:32.593Z,15.33
2023-03-20T17:59:02.867Z,14.97
2023-03-20T18:01:32.632Z,20.23
2023-03-20T18:03:59.487Z,17.50
2023-03-20T18:06:31.809Z,16.17
2023-03-20T18:08:59.519Z,21.00
2023-03-20T18:11:27.314Z,14.77
2023-03-20T18:13:53.805Z,22.90
2023-03-20T18:16:25.436Z,13.73
2023-03-20T18:18:52.634Z,17.50
2023-03-20T18:21:19.628Z,16.10
2023-03-20T18:23:46.521Z,17.67
2023-03-20T18:26:25.172Z,19.10
2023-03-20T18:28:53.000Z,16.43
2023-03-20T18:31:20.612Z,17.83
2023-03-20T18:33:52.974Z,15.80
2023-03-20T18:36:22.585Z,15.00
2023-03-20T18:38:50.057Z,18.13
2023-03-20T18:41:16.645Z,18.87
2023-03-20T18:43:43.475Z,28.47
2023-03-20T18:46:14.999Z,17.70
2023-03-20T18:48:42.059Z,17.23
2023-03-20T18:51:08.587Z,17.20
2023-03-20T18:53:35.143Z,18.03
2023-03-20T18:56:01.714Z,16.10
2023-03-20T18:58:29.790Z,11.13
2023-03-20T19:00:59.595Z,15.57
2023-03-20T19:03:28.524Z,16.50
2023-03-20T19:05:57.799Z,15.40
2023-03-20T19:08:24.373Z,13.10
2023-03-20T19:10:51.585Z,13.10
2023-03-20T19:13:20.758Z,14.23
2023-03-20T19:15:47.615Z,17.27
2023-03-20T19:18:26.346Z,16.50
2023-03-20T19:20:55.656Z,17.67
2023-03-20T19:23:24.264Z,15.97
2023-03-20T19:25:53.096Z,17.43
2023-03-20T19:28:37.831Z,16.43
2023-03-20T19:31:06.500Z,15.77
2023-03-20T19:33:33.348Z,16.50
2023-03-20T19:36:03.231Z,17.20
2023-03-20T19:38:31.890Z,18.80
2023-03-20T19:40:59.833Z,16.80
2023-03-20T19:43:28.838Z,17.00
2023-03-20T19:45:58.769Z,11.73
2023-03-20T19:48:46.477Z,11.40
2023-03-20T19:51:16.878Z,17.60
2023-03-20T19:53:44.460Z,11.90
2023-03-20T19:56:11.800Z,24.70
2023-03-20T19:58:39.547Z,16.13
2023-03-20T20:01:14.258Z,15.53
2023-03-20T20:03:41.577Z,24.57
2023-03-20T20:06:08.234Z,16.77
2023-03-20T20:08:46.839Z,13.87
2023-03-20T20:11:15.556Z,19.40
2023-03-20T20:14:03.797Z,12.83
2023-03-20T20:16:29.562Z,16.17
2023-03-20T20:18:56.096Z,15.73
2023-03-20T20:24:09.177Z,14.83
2023-03-20T20:26:40.479Z,14.13
2023-03-20T20:29:11.672Z,20.07
2023-03-20T20:31:38.223Z,13.00
2023-03-20T20:34:58.450Z,13.43
2023-03-20T20:37:42.477Z,17.07
2023-03-20T20:39:37.918Z,18.90
2023-03-20T20:42:05.309Z,18.57
2023-03-20T20:44:31.793Z,18.43
2023-03-20T20:46:58.374Z,15.40
2023-03-20T20:49:24.883Z,14.57
2023-03-20T20:51:51.336Z,17.67
2023-03-20T20:54:17.907Z,16.30
2023-03-20T20:56:44.522Z,16.47
2023-03-20T20:59:11.243Z,17.13
2023-03-20T21:01:37.756Z,16.13
2023-03-20T21:04:04.305Z,17.70
2023-03-20T21:06:59.693Z,21.43
2023-03-20T21:09:17.384Z,13.63
2023-03-20T21:11:43.882Z,19.07
2023-03-20T21:14:10.745Z,15.50
2023-03-20T21:16:37.262Z,13.67
2023-03-20T21:19:03.788Z,12.97
2023-03-20T21:21:30.500Z,12.63
2023-03-20T21:23:57.070Z,14.33
2023-03-20T21:26:23.781Z,14.90
2023-03-20T21:28:51.433Z,15.60
2023-03-20T21:31:27.284Z,15.70
2023-03-20T21:33:54.245Z,17.70
2023-03-20T21:36:21.686Z,11.97
2023-03-20T21:41:37.761Z,18.83
2023-03-20T21:44:08.346Z,12.83
2023-03-20T21:52:59.703Z,17.03
2023-03-20T22:03:43.967Z,11.47
2023-03-20T22:09:45.801Z,15.60
2023-03-20T22:15:20.172Z,13.43
2023-03-20T22:35:04.406Z,13.07
2023-03-20T22:45:10.791Z,17.63
2023-03-20T22:47:37.910Z,16.20
2023-03-20T22:50:05.321Z,17.00
2023-03-20T22:52:45.906Z,18.27
2023-03-20T22:55:16.693Z,12.53
2023-03-20T22:57:52.900Z,12.00
2023-03-20T23:00:29.884Z,15.23
2023-03-20T23:03:03.389Z,15.13
2023-03-20T23:05:39.278Z,11.83
2023-03-20T23:08:07.887Z,13.30
2023-03-20T23:10:37.334Z,17.70
2023-03-20T23:13:04.178Z,16.10
2023-03-20T23:15:31.020Z,15.07
2023-03-20T23:17:57.534Z,15.20
2023-03-20T23:20:24.240Z,16.30
2023-03-20T23:22:51.243Z,17.60
2023-03-20T23:25:30.749Z,14.40
2023-03-20T23:28:04.309Z,19.63
2023-03-20T23:30:37.883Z,14.77
2023-03-20T23:33:10.443Z,16.10
2023-03-20T23:35:37.018Z,17.87
2023-03-20T23:38:03.504Z,19.60
2023-03-20T23:40:31.049Z,22.37
2023-03-20T23:42:57.553Z,17.00
2023-03-20T23:45:24.125Z,14.00
2023-03-20T23:47:50.921Z,13.00
2023-03-20T23:50:30.158Z,14.50
2023-03-20T23:53:13.584Z,20.27
2023-03-20T23:55:47.141Z,16.57
2023-03-20T23:58:14.219Z,19.27
